createdAt,value
2022-12-25T00:02:04.034Z,9.98
2022-12-25T00:04:30.736Z,8.82
2022-12-25T00:06:59.689Z,8.60
2022-12-25T00:09:26.474Z,7.60
2022-12-25T00:11:53.240Z,5.93
2022-12-25T00:14:19.902Z,33.72
2022-12-25T00:16:46.780Z,14.68
2022-12-25T00:19:13.549Z,3.60
2022-12-25T00:21:40.238Z,2.50
2022-12-25T00:24:09.311Z,2.70
2022-12-25T00:26:35.963Z,3.10
2022-12-25T00:29:02.720Z,5.38
2022-12-25T00:31:29.538Z,3.13
2022-12-25T00:33:56.273Z,2.97
2022-12-25T00:36:23.862Z,2.88
2022-12-25T00:38:50.633Z,4.45
2022-12-25T00:41:43.262Z,4.10
2022-12-25T00:44:13.515Z,3.90
2022-12-25T00:46:40.968Z,4.13
2022-12-25T00:49:07.901Z,4.57
2022-12-25T00:51:34.699Z,4.63
2022-12-25T00:54:01.687Z,4.53
2022-12-25T00:56:29.764Z,3.70
2022-12-25T00:58:56.425Z,4.78
2022-12-25T01:01:23.379Z,4.82
2022-12-25T01:03:50.179Z,4.72
2022-12-25T01:06:16.782Z,3.72
2022-12-25T01:09:03.878Z,4.63
2022-12-25T01:11:32.200Z,4.30
2022-12-25T01:13:58.966Z,4.78
2022-12-25T01:16:28.820Z,4.07
2022-12-25T01:18:55.851Z,4.55
2022-12-25T01:21:23.012Z,4.80
2022-12-25T01:23:50.814Z,4.78
2022-12-25T01:26:18.534Z,4.35
2022-12-25T01:28:46.730Z,4.13
2022-12-25T01:31:15.783Z,4.75
2022-12-25T01:33:43.769Z,4.28
2022-12-25T01:36:14.804Z,4.82
2022-12-25T01:38:41.715Z,4.82
2022-12-25T01:41:08.425Z,4.85
2022-12-25T01:43:35.107Z,5.15
2022-12-25T01:46:04.146Z,4.53
2022-12-25T01:48:34.144Z,4.22
2022-12-25T01:51:04.770Z,4.93
2022-12-25T01:53:32.440Z,4.85
2022-12-25T01:56:03.099Z,4.63
2022-12-25T01:58:30.588Z,4.40
2022-12-25T02:00:57.581Z,5.28
2022-12-25T02:03:26.283Z,4.65
2022-12-25T02:05:53.468Z,4.63
2022-12-25T02:08:22.067Z,4.32
2022-12-25T02:10:49.219Z,4.82
2022-12-25T02:13:18.596Z,4.53
2022-12-25T02:15:53.832Z,5.05
2022-12-25T02:18:33.461Z,4.25
2022-12-25T02:21:25.211Z,4.43
2022-12-25T02:24:13.294Z,4.88
2022-12-25T02:27:00.502Z,3.92
2022-12-25T02:29:37.801Z,4.38
2022-12-25T02:32:11.260Z,7.13
2022-12-25T02:34:45.202Z,8.63
2022-12-25T02:39:58.726Z,10.10
2022-12-25T02:42:58.473Z,10.23
2022-12-25T02:45:50.745Z,12.25
2022-12-25T02:48:39.255Z,14.07
2022-12-25T02:51:29.111Z,13.15
2022-12-25T02:54:18.503Z,14.80
2022-12-25T02:57:06.322Z,13.85
2022-12-25T02:59:55.938Z,14.50
2022-12-25T03:02:43.607Z,15.75
2022-12-25T03:05:33.616Z,16.25
2022-12-25T03:08:04.974Z,16.98
2022-12-25T03:10:53.880Z,17.20
2022-12-25T03:13:25.745Z,16.58
2022-12-25T03:16:11.827Z,15.35
2022-12-25T03:18:40.007Z,14.52
2022-12-25T03:21:25.075Z,14.48
2022-12-25T03:24:14.597Z,15.07
2022-12-25T03:26:56.163Z,13.88
2022-12-25T03:29:41.833Z,13.63
2022-12-25T03:32:19.001Z,14.05
2022-12-25T03:35:15.498Z,13.38
2022-12-25T03:38:09.477Z,16.25
2022-12-25T03:41:03.442Z,16.85
2022-12-25T03:43:58.432Z,16.23
2022-12-25T03:46:47.528Z,15.55
2022-12-25T03:49:40.406Z,14.90
2022-12-25T03:52:30.541Z,17.52
2022-12-25T03:55:20.029Z,17.35
2022-12-25T03:58:05.472Z,17.33
2022-12-25T04:00:50.979Z,16.38
2022-12-25T04:03:36.506Z,16.65
2022-12-25T04:06:22.113Z,16.10
2022-12-25T04:09:08.945Z,16.38
2022-12-25T04:12:00.433Z,13.80
2022-12-25T04:14:48.060Z,27.67
2022-12-25T04:17:33.303Z,24.20
2022-12-25T04:20:18.811Z,18.23
2022-12-25T04:23:04.919Z,15.85
2022-12-25T04:25:51.495Z,15.15
2022-12-25T04:28:36.869Z,15.65
2022-12-25T04:31:22.244Z,9.27
2022-12-25T04:34:07.497Z,10.15
2022-12-25T04:36:34.186Z,13.63
2022-12-25T04:39:00.816Z,13.90
2022-12-25T04:41:28.811Z,13.48
2022-12-25T04:43:55.462Z,12.05
2022-12-25T04:46:22.327Z,12.25
2022-12-25T04:48:49.087Z,12.27
2022-12-25T04:51:17.537Z,11.52
2022-12-25T04:53:45.307Z,10.60
2022-12-25T04:56:12.118Z,11.25
2022-12-25T04:58:40.432Z,9.43
2022-12-25T05:01:07.427Z,9.05
2022-12-25T05:03:34.750Z,11.30
2022-12-25T05:06:02.380Z,9.93
2022-12-25T05:08:30.041Z,11.48
2022-12-25T05:10:56.802Z,12.48
2022-12-25T05:13:24.100Z,15.10
2022-12-25T05:15:52.499Z,17.00
2022-12-25T05:18:19.385Z,16.50
2022-12-25T05:20:52.004Z,16.90
2022-12-25T05:23:18.726Z,16.98
2022-12-25T05:25:45.439Z,17.65
2022-12-25T05:28:12.031Z,16.27
2022-12-25T05:30:38.723Z,16.08
2022-12-25T05:33:07.057Z,15.73
2022-12-25T05:35:36.542Z,15.45
2022-12-25T05:38:03.350Z,15.50
2022-12-25T05:40:29.935Z,15.30
2022-12-25T05:42:56.556Z,15.23
2022-12-25T05:45:23.400Z,15.63
2022-12-25T05:47:50.113Z,15.02
2022-12-25T05:50:18.382Z,14.57
2022-12-25T05:52:45.016Z,16.42
2022-12-25T05:55:11.628Z,15.40
2022-12-25T05:57:38.325Z,16.45
2022-12-25T06:00:06.279Z,17.05
2022-12-25T06:02:34.894Z,17.45
2022-12-25T06:05:01.629Z,16.95
2022-12-25T06:07:29.723Z,17.02
2022-12-25T06:09:56.375Z,15.13
2022-12-25T06:12:23.038Z,14.50
2022-12-25T06:14:49.823Z,17.27
2022-12-25T06:17:16.469Z,17.35
2022-12-25T06:19:43.117Z,17.98
2022-12-25T06:22:09.811Z,17.90
2022-12-25T06:24:38.473Z,19.70
2022-12-25T06:27:05.121Z,18.30
2022-12-25T06:29:31.764Z,16.73
2022-12-25T06:31:58.999Z,15.07
2022-12-25T06:34:27.045Z,15.80
2022-12-25T06:36:53.767Z,13.75
2022-12-25T06:39:21.415Z,13.15
2022-12-25T06:41:49.514Z,12.00
2022-12-25T06:44:16.214Z,11.00
2022-12-25T06:46:42.862Z,10.20
2022-12-25T06:49:10.502Z,10.38
2022-12-25T06:51:37.233Z,8.40
2022-12-25T06:54:04.522Z,7.43
2022-12-25T06:56:32.675Z,7.47
2022-12-25T06:59:02.192Z,7.13
2022-12-25T07:01:31.128Z,6.75
2022-12-25T07:03:59.668Z,6.80
2022-12-25T07:06:29.194Z,5.88
2022-12-25T07:08:55.800Z,5.97
2022-12-25T07:11:22.782Z,5.45
2022-12-25T07:13:52.090Z,5.30
2022-12-25T07:16:20.239Z,4.93
2022-12-25T07:18:46.971Z,6.38
2022-12-25T07:21:16.838Z,6.18
2022-12-25T07:23:44.414Z,5.50
2022-12-25T07:26:12.078Z,5.72
2022-12-25T07:28:39.248Z,6.00
2022-12-25T07:31:08.102Z,6.20
2022-12-25T07:33:36.181Z,5.65
2022-12-25T07:36:03.441Z,5.93
2022-12-25T07:38:30.364Z,6.15
2022-12-25T07:40:57.273Z,6.65
2022-12-25T07:43:24.007Z,6.72
2022-12-25T07:45:55.023Z,7.40
2022-12-25T07:48:21.765Z,8.60
2022-12-25T07:50:55.920Z,8.00
2022-12-25T07:53:22.719Z,8.40
2022-12-25T07:55:56.349Z,7.57
2022-12-25T07:58:23.560Z,7.93
2022-12-25T08:00:50.947Z,8.00
2022-12-25T08:03:18.626Z,8.52
2022-12-25T08:05:45.861Z,7.03
2022-12-25T08:08:13.930Z,7.70
2022-12-25T08:10:45.721Z,7.40
2022-12-25T08:13:14.735Z,8.10
2022-12-25T08:15:41.818Z,7.45
2022-12-25T08:18:08.521Z,7.53
2022-12-25T08:20:35.965Z,7.07
2022-12-25T08:23:03.003Z,5.97
2022-12-25T08:25:31.362Z,5.65
2022-12-25T08:28:00.396Z,5.45
2022-12-25T08:30:27.460Z,5.25
2022-12-25T08:32:54.227Z,5.10
2022-12-25T08:35:21.192Z,5.65
2022-12-25T08:37:47.905Z,4.93
2022-12-25T08:40:14.788Z,4.90
2022-12-25T08:42:42.869Z,4.90
2022-12-25T08:45:10.925Z,4.70
2022-12-25T08:47:39.475Z,4.55
2022-12-25T08:50:07.693Z,3.50
2022-12-25T08:52:34.679Z,3.45
2022-12-25T08:55:01.630Z,3.05
2022-12-25T08:57:28.285Z,2.95
2022-12-25T08:59:56.400Z,3.47
2022-12-25T09:02:23.254Z,3.80
2022-12-25T09:04:50.096Z,4.22
2022-12-25T09:07:16.768Z,4.60
2022-12-25T09:09:43.630Z,4.90
2022-12-25T09:12:10.316Z,4.68
2022-12-25T09:14:37.054Z,4.82
2022-12-25T09:17:05.091Z,4.85
2022-12-25T09:19:31.990Z,20.20
2022-12-25T09:21:58.705Z,4.00
2022-12-25T09:24:25.479Z,3.05
2022-12-25T09:26:52.203Z,3.45
2022-12-25T09:29:18.999Z,2.90
2022-12-25T09:31:45.808Z,3.03
2022-12-25T09:34:17.202Z,2.90
2022-12-25T09:36:45.757Z,2.78
2022-12-25T09:39:12.537Z,2.40
2022-12-25T09:41:53.113Z,3.00
2022-12-25T09:44:24.722Z,3.72
2022-12-25T09:46:55.542Z,2.50
2022-12-25T09:49:32.647Z,2.95
2022-12-25T09:52:05.299Z,3.35
2022-12-25T09:54:39.548Z,3.42
2022-12-25T09:57:09.689Z,4.30
2022-12-25T09:59:36.473Z,5.40
2022-12-25T10:02:23.799Z,5.80
2022-12-25T10:05:07.020Z,5.60
2022-12-25T10:07:44.154Z,5.68
2022-12-25T10:10:27.190Z,6.10
2022-12-25T10:13:03.672Z,6.55
2022-12-25T10:15:39.125Z,6.32
2022-12-25T10:18:31.379Z,6.47
2022-12-25T10:21:01.491Z,7.03
2022-12-25T10:23:30.680Z,6.90
2022-12-25T10:25:57.457Z,7.30
2022-12-25T10:28:29.928Z,8.13
2022-12-25T10:31:02.104Z,7.70
2022-12-25T10:33:28.978Z,10.90
2022-12-25T10:35:55.821Z,8.52
2022-12-25T10:38:24.126Z,6.00
2022-12-25T10:41:09.404Z,3.92
2022-12-25T10:43:43.550Z,3.35
2022-12-25T10:46:12.121Z,2.50
2022-12-25T10:48:43.527Z,2.97
2022-12-25T10:51:10.509Z,3.05
2022-12-25T10:53:41.968Z,3.58
2022-12-25T10:56:17.036Z,3.13
2022-12-25T10:58:44.052Z,2.97
2022-12-25T11:01:12.114Z,2.90
2022-12-25T11:03:41.285Z,2.92
2022-12-25T11:06:22.360Z,2.35
2022-12-25T11:08:55.099Z,2.55
2022-12-25T11:11:22.416Z,2.30
2022-12-25T11:13:52.496Z,2.30
2022-12-25T11:16:28.113Z,2.20
2022-12-25T11:18:56.197Z,2.30
2022-12-25T11:21:24.881Z,2.17
2022-12-25T11:23:58.697Z,2.00
2022-12-25T11:26:26.711Z,1.95
2022-12-25T11:28:56.055Z,1.70
2022-12-25T11:31:29.747Z,1.70
2022-12-25T11:34:02.905Z,0.95
2022-12-25T11:36:32.713Z,1.17
2022-12-25T11:39:11.169Z,1.38
2022-12-25T11:41:41.455Z,1.05
2022-12-25T11:44:22.998Z,1.35
2022-12-25T11:46:52.207Z,0.70
2022-12-25T11:49:21.512Z,0.85
2022-12-25T11:51:53.419Z,0.80
2022-12-25T11:54:26.571Z,0.93
2022-12-25T11:56:55.907Z,0.77
2022-12-25T11:59:27.355Z,0.80
2022-12-25T12:01:59.079Z,1.05
2022-12-25T12:04:31.919Z,1.08
2022-12-25T12:07:06.657Z,0.90
2022-12-25T12:09:44.332Z,1.00
2022-12-25T12:12:17.405Z,4.72
2022-12-25T12:14:50.628Z,4.90
2022-12-25T12:17:18.852Z,5.28
2022-12-25T12:19:45.949Z,5.97
2022-12-25T12:22:20.275Z,6.15
2022-12-25T12:24:54.806Z,6.93
2022-12-25T12:27:26.268Z,7.00
2022-12-25T12:29:56.538Z,7.90
2022-12-25T12:32:36.820Z,7.35
2022-12-25T12:35:13.851Z,5.47
2022-12-25T12:37:42.194Z,4.40
2022-12-25T12:40:25.651Z,4.90
2022-12-25T12:42:53.462Z,5.97
2022-12-25T12:45:25.982Z,6.32
2022-12-25T12:47:53.630Z,5.10
2022-12-25T12:50:34.214Z,6.00
2022-12-25T12:53:15.369Z,5.47
2022-12-25T12:55:43.473Z,4.75
2022-12-25T12:58:27.629Z,3.97
2022-12-25T13:03:43.826Z,3.85
2022-12-25T13:06:15.588Z,2.00
2022-12-25T13:08:56.825Z,2.78
2022-12-25T13:11:26.975Z,1.98
2022-12-25T13:13:55.402Z,2.25
2022-12-25T13:16:29.338Z,1.88
2022-12-25T13:18:56.600Z,2.03
2022-12-25T13:21:25.239Z,2.10
2022-12-25T13:23:57.658Z,2.30
2022-12-25T13:26:26.834Z,2.20
2022-12-25T13:28:56.069Z,2.05
2022-12-25T13:31:25.278Z,2.08
2022-12-25T13:33:58.219Z,2.80
2022-12-25T13:36:26.931Z,2.80
2022-12-25T13:38:56.535Z,2.90
2022-12-25T13:41:45.027Z,3.10
2022-12-25T13:44:18.998Z,3.10
2022-12-25T13:46:45.852Z,2.92
2022-12-25T13:49:15.868Z,2.88
2022-12-25T13:51:43.309Z,2.90
2022-12-25T13:54:12.782Z,2.58
2022-12-25T13:56:47.532Z,2.85
2022-12-25T13:59:17.260Z,2.80
2022-12-25T14:01:44.825Z,2.45
2022-12-25T14:04:15.961Z,2.63
2022-12-25T14:06:42.666Z,2.45
2022-12-25T14:09:11.311Z,2.20
2022-12-25T14:11:40.373Z,2.25
2022-12-25T14:14:17.377Z,2.08
2022-12-25T14:16:48.651Z,1.95
2022-12-25T14:19:27.298Z,2.50
2022-12-25T14:21:58.375Z,4.22
2022-12-25T14:24:27.028Z,2.65
2022-12-25T14:26:59.544Z,2.90
2022-12-25T14:29:34.550Z,2.60
2022-12-25T14:32:04.623Z,2.78
2022-12-25T14:34:33.030Z,2.60
2022-12-25T14:37:00.772Z,2.35
2022-12-25T14:39:32.663Z,2.42
2022-12-25T14:42:01.894Z,2.38
2022-12-25T14:44:34.383Z,2.50
2022-12-25T14:47:06.344Z,2.15
2022-12-25T14:49:33.140Z,2.20
2022-12-25T14:52:15.697Z,2.03
2022-12-25T14:54:46.133Z,1.85
2022-12-25T14:57:17.962Z,1.75
2022-12-25T14:59:46.134Z,1.83
2022-12-25T15:02:19.255Z,1.80
2022-12-25T15:04:46.151Z,2.05
2022-12-25T15:07:26.876Z,1.80
2022-12-25T15:10:18.605Z,1.67
2022-12-25T15:12:40.411Z,2.20
2022-12-25T15:15:09.889Z,1.80
2022-12-25T15:17:37.145Z,1.80
2022-12-25T15:20:05.407Z,2.10
2022-12-25T15:22:54.000Z,1.73
2022-12-25T15:25:21.870Z,2.50
2022-12-25T15:27:50.516Z,2.17
2022-12-25T15:30:18.672Z,2.00
2022-12-25T15:32:45.463Z,1.75
2022-12-25T15:35:16.430Z,1.77
2022-12-25T15:37:43.372Z,2.20
2022-12-25T15:40:12.469Z,1.85
2022-12-25T15:42:39.444Z,2.05
2022-12-25T15:45:14.750Z,1.95
2022-12-25T15:47:42.780Z,2.17
2022-12-25T15:50:10.154Z,2.60
2022-12-25T15:52:36.820Z,2.00
2022-12-25T15:55:03.655Z,1.90
2022-12-25T15:57:30.720Z,1.85
2022-12-25T15:59:57.421Z,3.30
2022-12-25T16:02:24.297Z,1.80
2022-12-25T16:04:54.945Z,1.60
2022-12-25T16:07:23.770Z,1.80
2022-12-25T16:09:50.486Z,1.83
2022-12-25T16:12:17.623Z,2.03
2022-12-25T16:14:44.335Z,1.80
2022-12-25T16:17:13.677Z,1.98
2022-12-25T16:19:40.385Z,2.10
2022-12-25T16:22:13.386Z,2.10
2022-12-25T16:24:40.006Z,2.17
2022-12-25T16:27:06.595Z,10.82
2022-12-25T16:29:33.275Z,5.53
2022-12-25T16:31:59.907Z,2.40
2022-12-25T16:34:26.609Z,2.05
2022-12-25T16:36:53.332Z,1.85
2022-12-25T16:39:21.694Z,2.20
2022-12-25T16:41:48.372Z,2.00
2022-12-25T16:44:15.096Z,3.00
2022-12-25T16:46:42.125Z,2.28
2022-12-25T16:49:08.894Z,2.10
2022-12-25T16:51:35.619Z,2.17
2022-12-25T16:54:02.433Z,2.10
2022-12-25T16:56:30.930Z,2.70
2022-12-25T16:59:00.961Z,2.45
2022-12-25T17:01:28.096Z,2.90
2022-12-25T17:03:55.143Z,2.50
2022-12-25T17:06:27.034Z,2.90
2022-12-25T17:08:59.456Z,2.38
2022-12-25T17:11:30.049Z,2.67
2022-12-25T17:13:59.925Z,2.50
2022-12-25T17:16:28.426Z,2.17
2022-12-25T17:18:56.519Z,1.90
2022-12-25T17:21:23.729Z,2.20
2022-12-25T17:23:50.597Z,2.45
2022-12-25T17:26:17.398Z,2.15
2022-12-25T17:28:44.161Z,1.88
2022-12-25T17:31:14.249Z,2.20
2022-12-25T17:33:42.474Z,2.13
2022-12-25T17:36:14.511Z,2.15
2022-12-25T17:38:41.776Z,2.53
2022-12-25T17:41:11.877Z,2.25
2022-12-25T17:43:40.233Z,2.30
2022-12-25T17:46:08.296Z,2.08
2022-12-25T17:48:36.450Z,2.38
2022-12-25T17:51:03.776Z,2.40
2022-12-25T17:53:30.982Z,2.45
2022-12-25T17:55:58.396Z,4.55
2022-12-25T17:58:25.273Z,2.03
2022-12-25T18:00:51.992Z,2.05
2022-12-25T18:03:19.251Z,2.20
2022-12-25T18:05:47.564Z,3.20
2022-12-25T18:08:14.571Z,2.10
2022-12-25T18:10:43.509Z,1.90
2022-12-25T18:13:11.054Z,2.05
2022-12-25T18:15:38.017Z,1.73
2022-12-25T18:18:05.413Z,1.70
2022-12-25T18:20:39.358Z,1.70
2022-12-25T18:23:08.123Z,1.83
2022-12-25T18:25:34.927Z,2.15
2022-12-25T18:28:02.837Z,1.88
2022-12-25T18:30:29.668Z,1.95
2022-12-25T18:32:56.447Z,2.05
2022-12-25T18:35:28.863Z,2.15
2022-12-25T18:37:55.580Z,2.17
2022-12-25T18:40:23.926Z,2.30
2022-12-25T18:43:01.116Z,1.67
2022-12-25T18:45:29.827Z,1.95
2022-12-25T18:47:56.677Z,1.90
2022-12-25T18:50:23.459Z,2.05
2022-12-25T18:52:51.605Z,2.03
2022-12-25T18:55:18.849Z,2.15
2022-12-25T18:57:47.702Z,2.17
2022-12-25T19:00:14.916Z,2.17
2022-12-25T19:02:41.940Z,2.00
2022-12-25T19:05:09.285Z,2.05
2022-12-25T19:07:36.172Z,2.03
2022-12-25T19:10:03.123Z,2.15
2022-12-25T19:12:29.808Z,2.08
2022-12-25T19:14:57.925Z,2.20
2022-12-25T19:17:31.347Z,2.10
2022-12-25T19:19:58.760Z,2.00
2022-12-25T19:22:25.476Z,2.42
2022-12-25T19:24:52.184Z,2.22
2022-12-25T19:27:18.838Z,2.20
2022-12-25T19:29:45.479Z,2.38
2022-12-25T19:32:13.743Z,2.25
2022-12-25T19:34:40.497Z,2.10
2022-12-25T19:37:07.710Z,2.17
2022-12-25T19:39:34.461Z,1.92
2022-12-25T19:42:01.220Z,2.33
2022-12-25T19:44:27.940Z,2.50
2022-12-25T19:46:55.860Z,2.50
2022-12-25T19:49:23.985Z,27.33
2022-12-25T19:51:50.783Z,2.30
2022-12-25T19:54:20.518Z,2.20
2022-12-25T19:56:47.548Z,2.40
2022-12-25T19:59:15.312Z,2.50
2022-12-25T20:01:42.345Z,2.25
2022-12-25T20:04:10.452Z,2.20
2022-12-25T20:06:40.752Z,2.28
2022-12-25T20:09:11.124Z,2.45
2022-12-25T20:11:38.357Z,2.53
2022-12-25T20:14:06.402Z,2.47
2022-12-25T20:16:33.284Z,2.88
2022-12-25T20:19:00.098Z,2.65
2022-12-25T20:21:27.560Z,2.88
2022-12-25T20:23:56.130Z,2.00
2022-12-25T20:26:26.399Z,2.25
2022-12-25T20:28:53.666Z,2.38
2022-12-25T20:31:23.287Z,2.10
2022-12-25T20:33:50.624Z,2.33
2022-12-25T20:36:18.956Z,2.65
2022-12-25T20:38:45.668Z,2.55
2022-12-25T20:41:31.931Z,2.50
2022-12-25T20:43:58.947Z,2.60
2022-12-25T20:46:26.840Z,3.05
2022-12-25T20:48:53.883Z,2.47
2022-12-25T20:51:23.069Z,2.60
2022-12-25T20:53:50.241Z,3.10
2022-12-25T20:56:20.038Z,2.72
2022-12-25T20:58:46.921Z,3.15
2022-12-25T21:01:16.288Z,3.22
2022-12-25T21:03:43.276Z,3.20
2022-12-25T21:06:11.154Z,3.38
2022-12-25T21:08:38.978Z,3.20
2022-12-25T21:11:07.281Z,3.17
2022-12-25T21:13:37.208Z,2.97
2022-12-25T21:16:05.189Z,3.03
2022-12-25T21:18:31.977Z,3.20
2022-12-25T21:21:04.639Z,3.40
2022-12-25T21:23:31.833Z,3.33
2022-12-25T21:25:58.758Z,3.17
2022-12-25T21:28:30.170Z,3.15
2022-12-25T21:31:03.204Z,2.97
2022-12-25T21:33:48.403Z,3.60
2022-12-25T21:36:15.253Z,3.30
2022-12-25T21:38:41.994Z,2.90
2022-12-25T21:41:10.775Z,3.28
2022-12-25T21:43:39.313Z,3.00
2022-12-25T21:46:09.486Z,3.28
2022-12-25T21:48:37.616Z,3.50
2022-12-25T21:51:25.496Z,3.55
2022-12-25T21:53:52.263Z,3.28
2022-12-25T21:56:18.929Z,3.10
2022-12-25T21:58:47.197Z,3.53
2022-12-25T22:01:17.900Z,3.00
2022-12-25T22:03:44.927Z,3.50
2022-12-25T22:06:30.628Z,4.28
2022-12-25T22:08:57.628Z,3.45
2022-12-25T22:11:43.221Z,3.35
2022-12-25T22:14:51.446Z,3.38
2022-12-25T22:17:42.324Z,3.10
2022-12-25T22:20:11.650Z,3.30
2022-12-25T22:22:38.446Z,2.60
2022-12-25T22:25:06.922Z,2.22
2022-12-25T22:27:35.202Z,2.45
2022-12-25T22:30:02.037Z,2.17
2022-12-25T22:32:30.176Z,2.13
2022-12-25T22:34:57.069Z,2.53
2022-12-25T22:37:24.152Z,2.47
2022-12-25T22:39:50.801Z,2.70
2022-12-25T22:42:17.798Z,2.42
2022-12-25T22:44:45.571Z,2.40
2022-12-25T22:47:12.377Z,2.25
2022-12-25T22:49:40.526Z,2.40
2022-12-25T22:52:09.675Z,2.25
2022-12-25T22:54:36.773Z,2.15
2022-12-25T22:57:03.869Z,2.50
2022-12-25T22:59:31.050Z,2.15
2022-12-25T23:02:00.692Z,2.30
2022-12-25T23:04:27.796Z,2.17
2022-12-25T23:06:56.265Z,2.20
2022-12-25T23:09:27.986Z,2.20
2022-12-25T23:11:55.622Z,2.28
2022-12-25T23:14:40.775Z,1.98
2022-12-25T23:17:29.565Z,2.80
2022-12-25T23:20:15.852Z,37.53
2022-12-25T23:23:02.547Z,27.23
2022-12-25T23:25:48.390Z,2.90
2022-12-25T23:28:35.216Z,2.50
2022-12-25T23:31:02.002Z,2.60
2022-12-25T23:33:28.819Z,2.70
2022-12-25T23:35:55.477Z,2.80
2022-12-25T23:38:23.810Z,2.80
2022-12-25T23:40:50.557Z,2.45
2022-12-25T23:43:17.317Z,2.45
2022-12-25T23:45:43.951Z,2.63
2022-12-25T23:48:10.661Z,2.88
2022-12-25T23:50:37.497Z,2.35
2022-12-25T23:53:04.271Z,2.35
2022-12-25T23:55:33.623Z,2.40
2022-12-25T23:58:00.275Z,2.58
